sensor_id;sensor_type;location;lat;lon;timestamp;pressure;altitude;pressure_sealevel;temperature;humidity
84147;BME280;74267;50.434;7.398;2024-02-23T00:00:00;98344.28;;;8.21;67.07
84147;BME280;74267;50.434;7.398;2024-02-23T00:02:25;98370.34;;;8.27;66.77
84147;BME280;74267;50.434;7.398;2024-02-23T00:04:51;98380.19;;;8.20;66.88
84147;BME280;74267;50.434;7.398;2024-02-23T00:07:16;98384.31;;;8.16;67.03
84147;BME280;74267;50.434;7.398;2024-02-23T00:09:41;98396.25;;;8.24;67.70
84147;BME280;74267;50.434;7.398;2024-02-23T00:12:06;98409.72;;;8.16;67.83
84147;BME280;74267;50.434;7.398;2024-02-23T00:14:34;98414.97;;;8.16;67.87
84147;BME280;74267;50.434;7.398;2024-02-23T00:17:04;98413.03;;;8.06;67.31
84147;BME280;74267;50.434;7.398;2024-02-23T00:19:30;98420.69;;;8.13;67.19
84147;BME280;74267;50.434;7.398;2024-02-23T00:21:56;98430.50;;;8.01;67.10
84147;BME280;74267;50.434;7.398;2024-02-23T00:24:21;98442.50;;;7.97;66.47
84147;BME280;74267;50.434;7.398;2024-02-23T00:26:48;98439.81;;;7.92;67.79
84147;BME280;74267;50.434;7.398;2024-02-23T00:29:13;98453.38;;;7.89;66.88
84147;BME280;74267;50.434;7.398;2024-02-23T00:31:39;98454.81;;;7.96;66.57
84147;BME280;74267;50.434;7.398;2024-02-23T00:34:08;98455.03;;;7.95;65.92
84147;BME280;74267;50.434;7.398;2024-02-23T00:36:40;98460.75;;;7.92;65.97
84147;BME280;74267;50.434;7.398;2024-02-23T00:39:06;98473.31;;;7.90;65.69
84147;BME280;74267;50.434;7.398;2024-02-23T00:41:33;98486.47;;;7.95;64.51
84147;BME280;74267;50.434;7.398;2024-02-23T00:43:58;98495.22;;;7.84;63.79
84147;BME280;74267;50.434;7.398;2024-02-23T00:46:23;98530.16;;;7.89;63.63
84147;BME280;74267;50.434;7.398;2024-02-23T00:48:49;98533.09;;;7.76;67.23
84147;BME280;74267;50.434;7.398;2024-02-23T00:51:14;98553.84;;;7.21;72.62
84147;BME280;74267;50.434;7.398;2024-02-23T00:53:39;98575.78;;;6.58;77.98
84147;BME280;74267;50.434;7.398;2024-02-23T00:56:05;98546.50;;;6.44;78.70
84147;BME280;74267;50.434;7.398;2024-02-23T00:58:30;98526.16;;;6.35;78.27
84147;BME280;74267;50.434;7.398;2024-02-23T01:00:56;98536.25;;;6.43;77.36
84147;BME280;74267;50.434;7.398;2024-02-23T01:03:21;98545.13;;;6.53;79.09
84147;BME280;74267;50.434;7.398;2024-02-23T01:05:47;98549.19;;;6.49;77.98
84147;BME280;74267;50.434;7.398;2024-02-23T01:08:12;98568.75;;;6.58;76.50
84147;BME280;74267;50.434;7.398;2024-02-23T01:10:37;98569.78;;;6.57;75.87
84147;BME280;74267;50.434;7.398;2024-02-23T01:13:03;98571.81;;;6.44;76.12
84147;BME280;74267;50.434;7.398;2024-02-23T01:15:30;98584.66;;;6.45;77.81
84147;BME280;74267;50.434;7.398;2024-02-23T01:17:55;98587.84;;;6.47;76.58
84147;BME280;74267;50.434;7.398;2024-02-23T01:20:21;98595.94;;;6.46;75.37
84147;BME280;74267;50.434;7.398;2024-02-23T01:22:46;98602.41;;;6.43;76.21
84147;BME280;74267;50.434;7.398;2024-02-23T01:25:12;98610.81;;;6.45;74.08
84147;BME280;74267;50.434;7.398;2024-02-23T01:27:37;98625.59;;;6.51;74.85
84147;BME280;74267;50.434;7.398;2024-02-23T01:30:03;98618.41;;;6.47;75.35
84147;BME280;74267;50.434;7.398;2024-02-23T01:32:28;98614.00;;;6.47;74.30
84147;BME280;74267;50.434;7.398;2024-02-23T01:34:54;98613.78;;;6.49;73.88
84147;BME280;74267;50.434;7.398;2024-02-23T01:37:19;98616.72;;;6.52;74.44
84147;BME280;74267;50.434;7.398;2024-02-23T01:39:44;98621.38;;;6.50;72.15
84147;BME280;74267;50.434;7.398;2024-02-23T01:42:10;98628.09;;;6.46;72.72
84147;BME280;74267;50.434;7.398;2024-02-23T01:44:35;98630.38;;;6.54;73.28
84147;BME280;74267;50.434;7.398;2024-02-23T01:47:00;98636.50;;;6.48;73.17
84147;BME280;74267;50.434;7.398;2024-02-23T01:49:26;98637.59;;;6.29;74.47
84147;BME280;74267;50.434;7.398;2024-02-23T01:51:57;98635.44;;;6.38;73.99
84147;BME280;74267;50.434;7.398;2024-02-23T01:54:22;98648.03;;;6.29;74.75
84147;BME280;74267;50.434;7.398;2024-02-23T01:56:48;98634.66;;;6.37;75.17
84147;BME280;74267;50.434;7.398;2024-02-23T01:59:13;98635.00;;;6.41;74.92
84147;BME280;74267;50.434;7.398;2024-02-23T02:01:39;98636.94;;;6.34;74.67
84147;BME280;74267;50.434;7.398;2024-02-23T02:04:07;98640.34;;;6.34;75.41
84147;BME280;74267;50.434;7.398;2024-02-23T02:06:33;98641.38;;;6.33;76.27
84147;BME280;74267;50.434;7.398;2024-02-23T02:08:58;98649.66;;;6.30;75.22
84147;BME280;74267;50.434;7.398;2024-02-23T02:11:23;98652.63;;;6.45;75.69
84147;BME280;74267;50.434;7.398;2024-02-23T02:13:49;98649.91;;;6.40;76.17
84147;BME280;74267;50.434;7.398;2024-02-23T02:16:14;98656.16;;;6.51;74.79
84147;BME280;74267;50.434;7.398;2024-02-23T02:18:39;98651.72;;;6.51;76.47
84147;BME280;74267;50.434;7.398;2024-02-23T02:21:05;98643.78;;;6.46;76.52
84147;BME280;74267;50.434;7.398;2024-02-23T02:23:30;98663.75;;;6.41;76.46
84147;BME280;74267;50.434;7.398;2024-02-23T02:25:56;98664.56;;;6.41;78.47
84147;BME280;74267;50.434;7.398;2024-02-23T02:28:23;98678.75;;;6.45;78.96
84147;BME280;74267;50.434;7.398;2024-02-23T02:30:49;98666.53;;;6.16;78.97
84147;BME280;74267;50.434;7.398;2024-02-23T02:33:15;98667.22;;;6.12;79.73
84147;BME280;74267;50.434;7.398;2024-02-23T02:35:40;98664.84;;;6.10;79.67
84147;BME280;74267;50.434;7.398;2024-02-23T02:38:06;98666.97;;;6.02;78.53
84147;BME280;74267;50.434;7.398;2024-02-23T02:40:31;98665.16;;;6.14;78.26
84147;BME280;74267;50.434;7.398;2024-02-23T02:42:57;98669.63;;;6.13;79.59
84147;BME280;74267;50.434;7.398;2024-02-23T02:45:22;98661.91;;;6.18;79.14
84147;BME280;74267;50.434;7.398;2024-02-23T02:47:48;98669.16;;;6.16;78.03
84147;BME280;74267;50.434;7.398;2024-02-23T02:50:13;98660.94;;;6.01;78.06
84147;BME280;74267;50.434;7.398;2024-02-23T02:52:39;98672.25;;;6.25;79.91
84147;BME280;74267;50.434;7.398;2024-02-23T02:55:04;98684.41;;;6.31;79.03
84147;BME280;74267;50.434;7.398;2024-02-23T02:57:30;98675.91;;;6.35;80.40
84147;BME280;74267;50.434;7.398;2024-02-23T02:59:55;98679.66;;;6.39;78.71
84147;BME280;74267;50.434;7.398;2024-02-23T03:02:20;98680.09;;;6.36;79.15
84147;BME280;74267;50.434;7.398;2024-02-23T03:04:50;98690.34;;;6.49;79.48
84147;BME280;74267;50.434;7.398;2024-02-23T03:07:18;98685.59;;;6.46;80.26
84147;BME280;74267;50.434;7.398;2024-02-23T03:09:43;98689.66;;;6.42;80.36
84147;BME280;74267;50.434;7.398;2024-02-23T03:12:10;98684.22;;;6.44;80.14
84147;BME280;74267;50.434;7.398;2024-02-23T03:14:35;98682.50;;;6.38;79.33
84147;BME280;74267;50.434;7.398;2024-02-23T03:17:02;98692.69;;;6.28;78.16
84147;BME280;74267;50.434;7.398;2024-02-23T03:19:28;98685.06;;;6.26;77.95
84147;BME280;74267;50.434;7.398;2024-02-23T03:21:54;98687.03;;;6.31;77.95
84147;BME280;74267;50.434;7.398;2024-02-23T03:24:19;98689.41;;;6.32;77.83
84147;BME280;74267;50.434;7.398;2024-02-23T03:26:44;98691.72;;;6.40;77.94
84147;BME280;74267;50.434;7.398;2024-02-23T03:29:10;98691.72;;;6.40;79.23
84147;BME280;74267;50.434;7.398;2024-02-23T03:31:35;98703.31;;;6.44;77.61
84147;BME280;74267;50.434;7.398;2024-02-23T03:34:02;98701.28;;;6.46;77.34
84147;BME280;74267;50.434;7.398;2024-02-23T03:36:27;98707.19;;;6.53;77.03
84147;BME280;74267;50.434;7.398;2024-02-23T03:38:53;98708.13;;;6.59;77.67
84147;BME280;74267;50.434;7.398;2024-02-23T03:41:18;98710.06;;;6.63;76.87
84147;BME280;74267;50.434;7.398;2024-02-23T03:43:43;98714.69;;;6.50;76.11
84147;BME280;74267;50.434;7.398;2024-02-23T03:46:09;98708.53;;;6.44;75.91
84147;BME280;74267;50.434;7.398;2024-02-23T03:48:34;98703.75;;;6.41;76.71
84147;BME280;74267;50.434;7.398;2024-02-23T03:51:03;98715.00;;;6.30;76.02
84147;BME280;74267;50.434;7.398;2024-02-23T03:53:28;98709.19;;;6.28;75.96
84147;BME280;74267;50.434;7.398;2024-02-23T03:55:54;98703.94;;;6.28;76.41
84147;BME280;74267;50.434;7.398;2024-02-23T03:58:19;98703.94;;;6.28;76.36
84147;BME280;74267;50.434;7.398;2024-02-23T04:00:44;98699.06;;;6.20;76.41
84147;BME280;74267;50.434;7.398;2024-02-23T04:03:10;98709.38;;;6.15;76.68
84147;BME280;74267;50.434;7.398;2024-02-23T04:05:35;98707.78;;;6.14;77.17
84147;BME280;74267;50.434;7.398;2024-02-23T04:08:00;98706.84;;;6.09;74.88
84147;BME280;74267;50.434;7.398;2024-02-23T04:10:25;98711.53;;;6.18;76.28
84147;BME280;74267;50.434;7.398;2024-02-23T04:12:51;98710.06;;;6.22;76.10
84147;BME280;74267;50.434;7.398;2024-02-23T04:15:16;98709.19;;;6.28;77.11
84147;BME280;74267;50.434;7.398;2024-02-23T04:17:42;98704.66;;;6.35;75.98
84147;BME280;74267;50.434;7.398;2024-02-23T04:20:08;98698.50;;;6.30;74.67
84147;BME280;74267;50.434;7.398;2024-02-23T04:22:36;98690.78;;;6.23;75.65
84147;BME280;74267;50.434;7.398;2024-02-23T04:25:02;98696.25;;;6.33;74.71
84147;BME280;74267;50.434;7.398;2024-02-23T04:27:28;98691.03;;;6.33;73.65
84147;BME280;74267;50.434;7.398;2024-02-23T04:29:53;98692.63;;;6.34;75.72
84147;BME280;74267;50.434;7.398;2024-02-23T04:32:18;98689.41;;;6.32;74.45
84147;BME280;74267;50.434;7.398;2024-02-23T04:34:44;98686.50;;;6.40;75.34
84147;BME280;74267;50.434;7.398;2024-02-23T04:37:09;98685.69;;;6.40;74.05
84147;BME280;74267;50.434;7.398;2024-02-23T04:39:34;98689.22;;;6.45;74.83
84147;BME280;74267;50.434;7.398;2024-02-23T04:42:00;98690.69;;;6.41;74.84
84147;BME280;74267;50.434;7.398;2024-02-23T04:44:25;98691.50;;;6.42;74.38
84147;BME280;74267;50.434;7.398;2024-02-23T04:46:50;98697.19;;;6.50;75.22
84147;BME280;74267;50.434;7.398;2024-02-23T04:49:16;98692.19;;;6.49;74.15
84147;BME280;74267;50.434;7.398;2024-02-23T04:51:41;98696.34;;;6.27;74.26
84147;BME280;74267;50.434;7.398;2024-02-23T04:54:06;98697.59;;;6.24;73.44
84147;BME280;74267;50.434;7.398;2024-02-23T04:56:32;98696.00;;;6.23;74.33
84147;BME280;74267;50.434;7.398;2024-02-23T04:58:58;98705.53;;;6.29;74.64
84147;BME280;74267;50.434;7.398;2024-02-23T05:01:24;98705.69;;;6.34;74.43
84147;BME280;74267;50.434;7.398;2024-02-23T05:03:49;98704.66;;;6.35;73.69
84147;BME280;74267;50.434;7.398;2024-02-23T05:06:15;98700.31;;;6.29;74.01
84147;BME280;74267;50.434;7.398;2024-02-23T05:08:40;98700.19;;;6.24;73.96
84147;BME280;74267;50.434;7.398;2024-02-23T05:11:06;98707.16;;;6.30;74.50
84147;BME280;74267;50.434;7.398;2024-02-23T05:13:31;98695.53;;;6.26;74.35
84147;BME280;74267;50.434;7.398;2024-02-23T05:15:57;98695.19;;;6.23;73.26
84147;BME280;74267;50.434;7.398;2024-02-23T05:18:22;98692.13;;;6.26;72.47
84147;BME280;74267;50.434;7.398;2024-02-23T05:20:48;98698.47;;;6.18;74.01
84147;BME280;74267;50.434;7.398;2024-02-23T05:23:13;98697.34;;;6.14;73.34
84147;BME280;74267;50.434;7.398;2024-02-23T05:25:41;98704.28;;;6.20;74.63
84147;BME280;74267;50.434;7.398;2024-02-23T05:28:06;98702.13;;;6.17;73.61
84147;BME280;74267;50.434;7.398;2024-02-23T05:30:31;98699.06;;;6.20;73.38
84147;BME280;74267;50.434;7.398;2024-02-23T05:32:57;98694.81;;;6.19;73.33
84147;BME280;74267;50.434;7.398;2024-02-23T05:35:29;98702.22;;;6.22;73.20
84147;BME280;74267;50.434;7.398;2024-02-23T05:37:54;98693.94;;;6.25;73.08
84147;BME280;74267;50.434;7.398;2024-02-23T05:40:20;98682.34;;;6.21;73.43
84147;BME280;74267;50.434;7.398;2024-02-23T05:42:46;98685.56;;;6.23;73.19
84147;BME280;74267;50.434;7.398;2024-02-23T05:45:11;98688.72;;;6.25;74.69
84147;BME280;74267;50.434;7.398;2024-02-23T05:47:39;98678.16;;;6.20;74.23
84147;BME280;74267;50.434;7.398;2024-02-23T05:50:08;98682.78;;;6.18;73.53
84147;BME280;74267;50.434;7.398;2024-02-23T05:52:34;98673.38;;;6.17;74.68
84147;BME280;74267;50.434;7.398;2024-02-23T05:55:00;98671.47;;;6.24;74.25
84147;BME280;74267;50.434;7.398;2024-02-23T05:57:26;98663.03;;;6.22;73.60
84147;BME280;74267;50.434;7.398;2024-02-23T05:59:52;98659.88;;;6.20;73.89
84147;BME280;74267;50.434;7.398;2024-02-23T06:02:18;98664.66;;;6.23;74.17
84147;BME280;74267;50.434;7.398;2024-02-23T06:04:43;98666.69;;;6.21;73.86
84147;BME280;74267;50.434;7.398;2024-02-23T06:07:09;98660.16;;;6.12;73.77
84147;BME280;74267;50.434;7.398;2024-02-23T06:09:34;98660.88;;;6.19;75.23
84147;BME280;74267;50.434;7.398;2024-02-23T06:11:59;98668.38;;;6.16;74.90
84147;BME280;74267;50.434;7.398;2024-02-23T06:14:25;98662.34;;;6.15;74.75
84147;BME280;74267;50.434;7.398;2024-02-23T06:16:50;98670.31;;;6.20;75.52
84147;BME280;74267;50.434;7.398;2024-02-23T06:19:15;98662.34;;;6.15;74.00
84147;BME280;74267;50.434;7.398;2024-02-23T06:21:41;98668.59;;;6.14;74.32
84147;BME280;74267;50.434;7.398;2024-02-23T06:24:06;98669.06;;;6.23;75.82
84147;BME280;74267;50.434;7.398;2024-02-23T06:26:33;98673.94;;;6.19;75.20
84147;BME280;74267;50.434;7.398;2024-02-23T06:28:59;98673.81;;;6.14;74.69
84147;BME280;74267;50.434;7.398;2024-02-23T06:31:24;98662.69;;;6.19;74.85
84147;BME280;74267;50.434;7.398;2024-02-23T06:33:50;98668.59;;;6.14;75.36
84147;BME280;74267;50.434;7.398;2024-02-23T06:36:16;98666.31;;;6.18;74.84
84147;BME280;74267;50.434;7.398;2024-02-23T06:38:43;98671.25;;;6.26;75.58
84147;BME280;74267;50.434;7.398;2024-02-23T06:41:08;98663.63;;;6.24;75.51
84147;BME280;74267;50.434;7.398;2024-02-23T06:43:36;98669.41;;;6.26;75.16
84147;BME280;74267;50.434;7.398;2024-02-23T06:46:06;98671.00;;;6.27;74.82
84147;BME280;74267;50.434;7.398;2024-02-23T06:48:32;98670.44;;;6.25;74.37
84147;BME280;74267;50.434;7.398;2024-02-23T06:50:57;98672.50;;;6.23;74.50
84147;BME280;74267;50.434;7.398;2024-02-23T06:53:23;98671.91;;;6.21;75.54
84147;BME280;74267;50.434;7.398;2024-02-23T06:55:48;98676.75;;;6.18;73.69
84147;BME280;74267;50.434;7.398;2024-02-23T06:58:13;98689.09;;;6.29;74.39
84147;BME280;74267;50.434;7.398;2024-02-23T07:00:40;98680.56;;;6.33;74.31
84147;BME280;74267;50.434;7.398;2024-02-23T07:03:05;98682.16;;;6.34;72.98
84147;BME280;74267;50.434;7.398;2024-02-23T07:05:30;98685.81;;;6.33;74.31
84147;BME280;74267;50.434;7.398;2024-02-23T07:07:56;98686.56;;;6.34;73.90
84147;BME280;74267;50.434;7.398;2024-02-23T07:10:21;98684.31;;;6.37;73.88
84147;BME280;74267;50.434;7.398;2024-02-23T07:12:47;98685.91;;;6.38;73.35
84147;BME280;74267;50.434;7.398;2024-02-23T07:15:14;98690.09;;;6.39;74.25
84147;BME280;74267;50.434;7.398;2024-02-23T07:17:39;98707.47;;;6.34;73.72
84147;BME280;74267;50.434;7.398;2024-02-23T07:20:05;98708.41;;;6.39;73.97
84147;BME280;74267;50.434;7.398;2024-02-23T07:22:33;98715.78;;;6.42;73.44
84147;BME280;74267;50.434;7.398;2024-02-23T07:24:59;98719.44;;;6.41;72.80
84147;BME280;74267;50.434;7.398;2024-02-23T07:27:26;98725.81;;;6.45;73.49
84147;BME280;74267;50.434;7.398;2024-02-23T07:29:52;98731.03;;;6.45;73.96
84147;BME280;74267;50.434;7.398;2024-02-23T07:32:17;98732.19;;;6.49;73.02
84147;BME280;74267;50.434;7.398;2024-02-23T07:34:42;98727.66;;;6.45;73.27
84147;BME280;74267;50.434;7.398;2024-02-23T07:37:08;98736.47;;;6.44;74.07
84147;BME280;74267;50.434;7.398;2024-02-23T07:39:34;98739.31;;;6.42;73.79
84147;BME280;74267;50.434;7.398;2024-02-23T07:41:59;98732.19;;;6.49;73.50
84147;BME280;74267;50.434;7.398;2024-02-23T07:44:25;98740.25;;;6.48;72.88
84147;BME280;74267;50.434;7.398;2024-02-23T07:46:51;98735.81;;;6.48;73.41
84147;BME280;74267;50.434;7.398;2024-02-23T07:49:19;98737.88;;;6.46;73.75
84147;BME280;74267;50.434;7.398;2024-02-23T07:51:44;98737.75;;;6.53;74.05
84147;BME280;74267;50.434;7.398;2024-02-23T07:54:10;98732.66;;;6.46;73.19
84147;BME280;74267;50.434;7.398;2024-02-23T07:56:35;98736.84;;;6.47;73.30
84147;BME280;74267;50.434;7.398;2024-02-23T07:59:00;98736.19;;;6.52;73.49
84147;BME280;74267;50.434;7.398;2024-02-23T08:01:28;98740.16;;;6.54;72.88
84147;BME280;74267;50.434;7.398;2024-02-23T08:03:54;98752.56;;;6.59;73.21
84147;BME280;74267;50.434;7.398;2024-02-23T08:06:19;98738.81;;;6.63;73.11
84147;BME280;74267;50.434;7.398;2024-02-23T08:08:45;98750.06;;;6.64;72.19
84147;BME280;74267;50.434;7.398;2024-02-23T08:11:12;98757.81;;;6.70;72.53
84147;BME280;74267;50.434;7.398;2024-02-23T08:13:39;98763.25;;;6.69;73.02
84147;BME280;74267;50.434;7.398;2024-02-23T08:16:04;98765.44;;;6.72;72.85
84147;BME280;74267;50.434;7.398;2024-02-23T08:18:31;98769.28;;;6.69;72.17
84147;BME280;74267;50.434;7.398;2024-02-23T08:20:56;98781.13;;;6.72;73.16
84147;BME280;74267;50.434;7.398;2024-02-23T08:23:21;98772.03;;;6.74;71.46
84147;BME280;74267;50.434;7.398;2024-02-23T08:25:48;98792.72;;;6.76;72.44
84147;BME280;74267;50.434;7.398;2024-02-23T08:28:13;98778.84;;;6.75;71.29
84147;BME280;74267;50.434;7.398;2024-02-23T08:30:39;98788.84;;;6.78;72.25
84147;BME280;74267;50.434;7.398;2024-02-23T08:33:04;98782.59;;;6.79;72.14
84147;BME280;74267;50.434;7.398;2024-02-23T08:35:30;98780.34;;;6.83;71.75
84147;BME280;74267;50.434;7.398;2024-02-23T08:37:56;98780.47;;;6.76;71.73
84147;BME280;74267;50.434;7.398;2024-02-23T08:40:21;98781.59;;;6.80;71.65
84147;BME280;74267;50.434;7.398;2024-02-23T08:42:47;98785.22;;;6.79;71.54
84147;BME280;74267;50.434;7.398;2024-02-23T08:45:12;98779.19;;;6.79;72.23
84147;BME280;74267;50.434;7.398;2024-02-23T08:47:39;98787.38;;;6.82;72.65
84147;BME280;74267;50.434;7.398;2024-02-23T08:50:05;98787.97;;;6.84;72.00
84147;BME280;74267;50.434;7.398;2024-02-23T08:52:31;98789.53;;;6.85;71.58
84147;BME280;74267;50.434;7.398;2024-02-23T08:54:56;98774.66;;;6.86;73.12
84147;BME280;74267;50.434;7.398;2024-02-23T08:57:22;98778.41;;;6.90;72.60
84147;BME280;74267;50.434;7.398;2024-02-23T08:59:49;98782.97;;;6.83;72.88
84147;BME280;74267;50.434;7.398;2024-02-23T09:02:14;98782.81;;;6.78;72.33
84147;BME280;74267;50.434;7.398;2024-02-23T09:04:39;98773.16;;;6.78;72.38
84147;BME280;74267;50.434;7.398;2024-02-23T09:07:05;98768.41;;;6.87;72.70
84147;BME280;74267;50.434;7.398;2024-02-23T09:09:30;98776.16;;;6.93;73.12
84147;BME280;74267;50.434;7.398;2024-02-23T09:11:56;98767.16;;;7.01;71.71
84147;BME280;74267;50.434;7.398;2024-02-23T09:14:21;98767.50;;;7.04;72.24
84147;BME280;74267;50.434;7.398;2024-02-23T09:16:47;98761.59;;;7.09;70.63
84147;BME280;74267;50.434;7.398;2024-02-23T09:19:16;98762.50;;;7.14;70.70
84147;BME280;74267;50.434;7.398;2024-02-23T09:21:41;98767.75;;;7.14;71.56
84147;BME280;74267;50.434;7.398;2024-02-23T09:24:06;98762.50;;;7.14;70.73
84147;BME280;74267;50.434;7.398;2024-02-23T09:26:32;98768.44;;;7.21;70.59
84147;BME280;74267;50.434;7.398;2024-02-23T09:28:57;98766.25;;;7.18;71.09
84147;BME280;74267;50.434;7.398;2024-02-23T09:31:22;98774.56;;;7.15;70.71
84147;BME280;74267;50.434;7.398;2024-02-23T09:33:48;98772.16;;;7.14;71.48
84147;BME280;74267;50.434;7.398;2024-02-23T09:36:16;98774.56;;;7.15;71.62
84147;BME280;74267;50.434;7.398;2024-02-23T09:38:42;98774.47;;;7.22;71.80
84147;BME280;74267;50.434;7.398;2024-02-23T09:41:14;98778.44;;;7.24;72.11
84147;BME280;74267;50.434;7.398;2024-02-23T09:43:42;98775.47;;;7.32;70.83
84147;BME280;74267;50.434;7.398;2024-02-23T09:46:07;98768.28;;;7.39;70.81
84147;BME280;74267;50.434;7.398;2024-02-23T09:48:33;98777.84;;;7.45;69.44
84147;BME280;74267;50.434;7.398;2024-02-23T09:51:01;98775.81;;;7.47;70.75
84147;BME280;74267;50.434;7.398;2024-02-23T09:53:26;98779.47;;;7.46;70.50
84147;BME280;74267;50.434;7.398;2024-02-23T09:55:53;98783.22;;;7.50;70.11
84147;BME280;74267;50.434;7.398;2024-02-23T09:58:19;98785.38;;;7.53;69.06
84147;BME280;74267;50.434;7.398;2024-02-23T10:00:46;98787.06;;;7.59;70.26
84147;BME280;74267;50.434;7.398;2024-02-23T10:03:11;98776.69;;;7.65;69.25
84147;BME280;74267;50.434;7.398;2024-02-23T10:05:36;98779.53;;;7.75;69.12
84147;BME280;74267;50.434;7.398;2024-02-23T10:08:04;98766.06;;;7.83;68.95
84147;BME280;74267;50.434;7.398;2024-02-23T10:10:30;98771.41;;;7.88;67.88
84147;BME280;74267;50.434;7.398;2024-02-23T10:12:58;98765.13;;;7.89;68.53
84147;BME280;74267;50.434;7.398;2024-02-23T10:15:24;98769.91;;;7.92;68.18
84147;BME280;74267;50.434;7.398;2024-02-23T10:17:49;98772.19;;;8.00;68.66
84147;BME280;74267;50.434;7.398;2024-02-23T10:20:14;98775.34;;;8.02;67.39
84147;BME280;74267;50.434;7.398;2024-02-23T10:22:40;98768.06;;;8.04;67.91
84147;BME280;74267;50.434;7.398;2024-02-23T10:25:05;98773.81;;;8.17;67.12
84147;BME280;74267;50.434;7.398;2024-02-23T10:27:31;98771.41;;;8.27;66.68
84147;BME280;74267;50.434;7.398;2024-02-23T10:29:56;98781.53;;;8.35;67.11
84147;BME280;74267;50.434;7.398;2024-02-23T10:32:23;98792.34;;;8.39;67.28
84147;BME280;74267;50.434;7.398;2024-02-23T10:34:48;98792.34;;;8.39;67.59
84147;BME280;74267;50.434;7.398;2024-02-23T10:37:15;98796.47;;;8.35;66.62
84147;BME280;74267;50.434;7.398;2024-02-23T10:39:41;98796.00;;;8.38;67.01
84147;BME280;74267;50.434;7.398;2024-02-23T10:42:09;98801.72;;;8.35;66.16
84147;BME280;74267;50.434;7.398;2024-02-23T10:44:35;98793.47;;;8.43;66.69
84147;BME280;74267;50.434;7.398;2024-02-23T10:47:02;98799.50;;;8.43;64.74
84147;BME280;74267;50.434;7.398;2024-02-23T10:49:29;98789.84;;;8.44;64.66
84147;BME280;74267;50.434;7.398;2024-02-23T10:51:56;98797.94;;;8.59;65.12
84147;BME280;74267;50.434;7.398;2024-02-23T10:54:22;98796.72;;;8.78;64.96
84147;BME280;74267;50.434;7.398;2024-02-23T10:56:49;98788.44;;;8.86;64.70
84147;BME280;74267;50.434;7.398;2024-02-23T10:59:16;98789.59;;;8.90;63.71
84147;BME280;74267;50.434;7.398;2024-02-23T11:01:46;98786.94;;;8.73;64.19
84147;BME280;74267;50.434;7.398;2024-02-23T11:04:15;98791.06;;;8.69;64.15
84147;BME280;74267;50.434;7.398;2024-02-23T11:06:41;98784.47;;;8.67;64.93
84147;BME280;74267;50.434;7.398;2024-02-23T11:09:08;98777.44;;;8.56;63.06
84147;BME280;74267;50.434;7.398;2024-02-23T11:11:34;98779.50;;;8.54;63.79
84147;BME280;74267;50.434;7.398;2024-02-23T11:14:02;98774.03;;;8.55;64.08
84147;BME280;74267;50.434;7.398;2024-02-23T11:16:31;98779.50;;;8.54;64.54
84147;BME280;74267;50.434;7.398;2024-02-23T11:19:04;98772.66;;;8.53;65.06
84147;BME280;74267;50.434;7.398;2024-02-23T11:21:36;98779.97;;;8.51;65.14
84147;BME280;74267;50.434;7.398;2024-02-23T11:24:03;98778.41;;;8.50;65.40
84147;BME280;74267;50.434;7.398;2024-02-23T11:26:29;98781.56;;;8.52;65.33
84147;BME280;74267;50.434;7.398;2024-02-23T11:28:54;98786.03;;;8.51;65.55
84147;BME280;74267;50.434;7.398;2024-02-23T11:31:21;98787.28;;;8.49;67.57
84147;BME280;74267;50.434;7.398;2024-02-23T11:33:54;98803.75;;;8.33;70.52
84147;BME280;74267;50.434;7.398;2024-02-23T11:36:32;98809.75;;;8.17;71.20
84147;BME280;74267;50.434;7.398;2024-02-23T11:38:58;98798.13;;;8.01;74.03
84147;BME280;74267;50.434;7.398;2024-02-23T11:41:25;98805.56;;;7.93;74.90
84147;BME280;74267;50.434;7.398;2024-02-23T11:43:51;98804.31;;;7.95;76.40
84147;BME280;74267;50.434;7.398;2024-02-23T11:46:17;98801.09;;;8.05;76.66
84147;BME280;74267;50.434;7.398;2024-02-23T11:48:43;98792.09;;;8.12;74.66
84147;BME280;74267;50.434;7.398;2024-02-23T11:51:18;98803.34;;;8.24;75.17
84147;BME280;74267;50.434;7.398;2024-02-23T11:53:44;98802.84;;;8.39;74.49
84147;BME280;74267;50.434;7.398;2024-02-23T11:56:10;98792.22;;;8.45;73.88
84147;BME280;74267;50.434;7.398;2024-02-23T11:58:36;98789.38;;;8.63;72.35
84147;BME280;74267;50.434;7.398;2024-02-23T12:01:03;98781.28;;;8.65;72.30
84147;BME280;74267;50.434;7.398;2024-02-23T12:03:29;98788.75;;;8.73;71.25
84147;BME280;74267;50.434;7.398;2024-02-23T12:05:57;98770.13;;;8.58;70.69
84147;BME280;74267;50.434;7.398;2024-02-23T12:08:25;98777.84;;;8.48;72.24
84147;BME280;74267;50.434;7.398;2024-02-23T12:10:52;98777.84;;;8.64;72.14
84147;BME280;74267;50.434;7.398;2024-02-23T12:13:17;98770.31;;;8.68;72.26
84147;BME280;74267;50.434;7.398;2024-02-23T12:15:43;98756.16;;;8.69;71.67
84147;BME280;74267;50.434;7.398;2024-02-23T12:18:10;98760.16;;;8.71;70.93
84147;BME280;74267;50.434;7.398;2024-02-23T12:20:36;98757.44;;;8.83;69.05
84147;BME280;74267;50.434;7.398;2024-02-23T12:23:01;98755.38;;;9.01;67.60
84147;BME280;74267;50.434;7.398;2024-02-23T12:25:26;98754.72;;;9.11;66.65
84147;BME280;74267;50.434;7.398;2024-02-23T12:27:58;98761.09;;;9.15;66.76
84147;BME280;74267;50.434;7.398;2024-02-23T12:30:23;98756.09;;;8.97;68.14
84147;BME280;74267;50.434;7.398;2024-02-23T12:32:49;98757.59;;;8.93;66.49
84147;BME280;74267;50.434;7.398;2024-02-23T12:35:14;98751.38;;;8.99;67.43
84147;BME280;74267;50.434;7.398;2024-02-23T12:37:42;98747.91;;;9.10;67.72
84147;BME280;74267;50.434;7.398;2024-02-23T12:40:08;98748.34;;;9.23;66.30
84147;BME280;74267;50.434;7.398;2024-02-23T12:42:34;98748.13;;;9.46;65.04
84147;BME280;74267;50.434;7.398;2024-02-23T12:45:00;98752.28;;;9.42;64.15
84147;BME280;74267;50.434;7.398;2024-02-23T12:47:25;98752.09;;;9.49;65.61
84147;BME280;74267;50.434;7.398;2024-02-23T12:49:51;98749.84;;;9.57;64.25
84147;BME280;74267;50.434;7.398;2024-02-23T12:52:16;98752.25;;;9.59;63.78
84147;BME280;74267;50.434;7.398;2024-02-23T12:54:41;98756.88;;;9.52;64.24
84147;BME280;74267;50.434;7.398;2024-02-23T12:57:07;98765.00;;;9.50;63.74
84147;BME280;74267;50.434;7.398;2024-02-23T12:59:32;98770.78;;;9.31;64.83
84147;BME280;74267;50.434;7.398;2024-02-23T13:01:57;98778.66;;;9.31;67.33